createdAt,value
2018-12-02T00:02:27.596Z,64.43
2018-12-02T00:04:57.279Z,54.73
2018-12-02T00:07:27.377Z,63.50
2018-12-02T00:09:56.963Z,58.13
2018-12-02T00:12:27.209Z,53.83
2018-12-02T00:14:56.801Z,57.07
2018-12-02T00:17:27.207Z,57.77
2018-12-02T00:19:56.774Z,52.33
2018-12-02T00:22:26.255Z,51.73
2018-12-02T00:24:55.719Z,53.70
2018-12-02T00:27:25.675Z,54.30
2018-12-02T00:29:55.180Z,50.47
2018-12-02T00:32:25.139Z,60.10
2018-12-02T00:34:54.898Z,61.70
2018-12-02T00:37:24.470Z,45.77
2018-12-02T00:39:54.029Z,50.30
2018-12-02T00:42:23.529Z,44.53
2018-12-02T00:44:53.024Z,43.63
2018-12-02T00:47:22.719Z,44.57
2018-12-02T00:49:52.335Z,47.53
2018-12-02T00:52:21.837Z,43.63
2018-12-02T00:54:51.402Z,44.57
2018-12-02T00:57:20.943Z,55.10
2018-12-02T00:59:50.474Z,51.87
2018-12-02T01:02:20.002Z,46.03
2018-12-02T01:04:49.630Z,47.10
2018-12-02T01:07:19.342Z,49.20
2018-12-02T01:09:49.581Z,53.40
2018-12-02T01:12:19.132Z,45.70
2018-12-02T01:14:49.121Z,47.10
2018-12-02T01:17:18.842Z,47.80
2018-12-02T01:19:49.116Z,48.37
2018-12-02T01:22:18.696Z,48.00
2018-12-02T01:24:48.562Z,50.17
2018-12-02T01:27:18.127Z,52.47
2018-12-02T01:29:47.812Z,46.70
2018-12-02T01:32:17.404Z,47.20
2018-12-02T01:34:47.194Z,48.37
2018-12-02T01:37:16.809Z,43.53
2018-12-02T01:39:46.547Z,42.47
2018-12-02T01:42:16.011Z,49.37
2018-12-02T01:44:45.568Z,49.63
2018-12-02T01:47:15.076Z,39.83
2018-12-02T01:49:44.552Z,48.70
2018-12-02T01:52:14.102Z,43.67
2018-12-02T01:54:43.961Z,46.50
2018-12-02T01:57:13.529Z,43.97
2018-12-02T01:59:43.010Z,42.93
2018-12-02T02:02:12.514Z,48.73
2018-12-02T02:04:42.113Z,41.23
2018-12-02T02:07:11.601Z,40.83
2018-12-02T02:09:42.443Z,44.57
2018-12-02T02:12:12.021Z,48.80
2018-12-02T02:14:41.515Z,38.13
2018-12-02T02:17:11.086Z,43.90
2018-12-02T02:19:40.770Z,47.13
2018-12-02T02:22:10.632Z,46.83
2018-12-02T02:24:41.218Z,49.80
2018-12-02T02:27:12.711Z,47.17
2018-12-02T02:29:42.195Z,41.57
2018-12-02T02:32:11.635Z,40.03
2018-12-02T02:34:41.088Z,40.40
2018-12-02T02:37:10.608Z,50.50
2018-12-02T02:39:41.458Z,41.03
2018-12-02T02:42:10.935Z,40.47
2018-12-02T02:44:40.452Z,51.83
2018-12-02T02:47:10.037Z,47.47
2018-12-02T02:49:39.623Z,45.23
2018-12-02T02:52:09.166Z,49.60
2018-12-02T02:54:39.408Z,50.77
2018-12-02T02:57:08.944Z,45.17
2018-12-02T02:59:38.464Z,45.83
2018-12-02T03:02:07.948Z,44.90
2018-12-02T03:04:37.536Z,51.47
2018-12-02T03:07:07.086Z,43.40
2018-12-02T03:09:36.707Z,44.43
2018-12-02T03:12:06.301Z,44.67
2018-12-02T03:14:35.782Z,48.93
2018-12-02T03:17:05.600Z,45.47
2018-12-02T03:19:38.401Z,49.47
2018-12-02T03:22:08.870Z,50.70
2018-12-02T03:24:41.579Z,52.57
2018-12-02T03:27:11.214Z,44.70
2018-12-02T03:29:40.665Z,44.57
2018-12-02T03:32:10.682Z,47.33
2018-12-02T03:34:40.171Z,43.53
2018-12-02T03:37:10.103Z,45.43
2018-12-02T03:39:40.625Z,43.27
2018-12-02T03:42:10.674Z,42.57
2018-12-02T03:44:40.693Z,43.20
2018-12-02T03:47:11.120Z,41.20
2018-12-02T03:49:40.699Z,44.23
2018-12-02T03:52:11.009Z,42.17
2018-12-02T03:54:42.000Z,39.13
2018-12-02T03:57:12.098Z,41.17
2018-12-02T03:59:41.672Z,38.70
2018-12-02T04:02:11.566Z,38.77
2018-12-02T04:04:41.002Z,40.03
2018-12-02T04:07:10.612Z,35.13
2018-12-02T04:09:41.570Z,41.40
2018-12-02T04:12:11.702Z,42.47
2018-12-02T04:14:41.243Z,35.50
2018-12-02T04:17:11.174Z,35.17
2018-12-02T04:19:40.636Z,37.97
2018-12-02T04:22:10.342Z,39.80
2018-12-02T04:24:40.882Z,32.83
2018-12-02T04:27:10.991Z,40.03
2018-12-02T04:29:40.719Z,41.17
2018-12-02T04:32:10.615Z,38.60
2018-12-02T04:34:40.150Z,42.70
2018-12-02T04:37:09.674Z,34.37
2018-12-02T04:39:45.820Z,37.50
2018-12-02T04:42:15.550Z,33.03
2018-12-02T04:44:45.144Z,31.70
2018-12-02T04:47:15.493Z,32.77
2018-12-02T04:49:45.208Z,32.87
2018-12-02T04:52:15.137Z,34.40
2018-12-02T04:54:44.548Z,32.93
2018-12-02T04:57:14.387Z,32.83
2018-12-02T04:59:43.713Z,29.77
2018-12-02T05:02:13.517Z,33.70
2018-12-02T05:04:42.856Z,37.47
2018-12-02T05:07:12.391Z,37.53
2018-12-02T05:09:42.661Z,34.43
2018-12-02T05:12:11.984Z,33.97
2018-12-02T05:14:41.330Z,36.03
2018-12-02T05:17:11.259Z,34.03
2018-12-02T05:19:40.611Z,35.00
2018-12-02T05:22:09.982Z,36.27
2018-12-02T05:24:41.217Z,32.43
2018-12-02T05:27:10.524Z,35.20
2018-12-02T05:29:39.868Z,36.47
2018-12-02T05:32:09.183Z,36.07
2018-12-02T05:34:38.537Z,37.27
2018-12-02T05:37:07.909Z,34.93
2018-12-02T05:39:37.165Z,33.47
2018-12-02T05:42:11.705Z,38.87
2018-12-02T05:44:41.058Z,35.77
2018-12-02T05:47:10.476Z,40.50
2018-12-02T05:49:39.827Z,33.10
2018-12-02T05:52:09.148Z,38.73
2018-12-02T05:54:39.218Z,31.50
2018-12-02T05:57:08.666Z,33.77
2018-12-02T05:59:38.826Z,37.30
2018-12-02T06:02:08.210Z,37.33
2018-12-02T06:04:37.587Z,39.07
2018-12-02T06:07:07.272Z,37.43
2018-12-02T06:09:36.577Z,41.80
2018-12-02T06:12:05.968Z,41.93
2018-12-02T06:14:35.646Z,39.43
2018-12-02T06:17:05.025Z,39.50
2018-12-02T06:19:34.368Z,45.53
2018-12-02T06:22:03.741Z,40.20
2018-12-02T06:24:33.048Z,38.70
2018-12-02T06:27:02.469Z,37.80
2018-12-02T06:29:33.327Z,41.90
2018-12-02T06:32:02.660Z,37.60
2018-12-02T06:34:32.331Z,38.00
2018-12-02T06:37:01.696Z,37.43
2018-12-02T06:39:31.664Z,34.83
2018-12-02T06:42:01.567Z,40.77
2018-12-02T06:44:32.396Z,35.30
2018-12-02T06:47:01.751Z,38.50
2018-12-02T06:49:31.889Z,38.17
2018-12-02T06:52:01.229Z,35.23
2018-12-02T06:54:42.755Z,34.07
2018-12-02T06:57:16.896Z,32.53
2018-12-02T06:59:55.797Z,34.33
2018-12-02T07:03:35.738Z,32.27
2018-12-02T07:06:05.121Z,34.80
2018-12-02T07:08:35.080Z,29.67
2018-12-02T07:11:04.526Z,33.73
2018-12-02T07:13:34.242Z,34.53
2018-12-02T07:16:03.566Z,34.03
2018-12-02T07:18:37.046Z,28.17
2018-12-02T07:21:12.374Z,32.00
2018-12-02T07:23:43.758Z,30.87
2018-12-02T07:26:16.537Z,25.90
2018-12-02T07:28:45.993Z,28.93
2018-12-02T07:31:15.301Z,29.93
2018-12-02T07:33:44.866Z,28.57
2018-12-02T07:36:14.192Z,26.33
2018-12-02T07:38:55.096Z,28.20
2018-12-02T07:41:24.536Z,25.40
2018-12-02T07:43:53.805Z,25.33
2018-12-02T07:46:23.183Z,25.27
2018-12-02T07:48:52.513Z,27.73
2018-12-02T07:51:22.083Z,23.03
2018-12-02T07:53:51.492Z,25.70
2018-12-02T07:56:20.834Z,22.60
2018-12-02T07:58:50.159Z,22.13
2018-12-02T08:01:19.493Z,24.03
2018-12-02T08:03:48.922Z,22.30
2018-12-02T08:06:18.335Z,25.47
2018-12-02T08:08:48.010Z,26.37
2018-12-02T08:11:17.828Z,20.60
2018-12-02T08:13:47.112Z,24.83
2018-12-02T08:16:16.402Z,29.17
2018-12-02T08:18:45.951Z,24.00
2018-12-02T08:21:15.591Z,26.73
2018-12-02T08:23:45.193Z,26.00
2018-12-02T08:26:14.607Z,23.80
2018-12-02T08:28:44.292Z,24.33
2018-12-02T08:31:14.590Z,26.50
2018-12-02T08:33:47.635Z,24.33
2018-12-02T08:36:25.595Z,25.83
2018-12-02T08:39:00.121Z,23.40
2018-12-02T08:41:36.607Z,27.63
2018-12-02T08:44:15.320Z,25.07
2018-12-02T08:46:51.614Z,23.00
2018-12-02T08:49:28.962Z,24.77
2018-12-02T08:52:00.246Z,22.57
2018-12-02T08:54:29.587Z,23.40
2018-12-02T08:57:03.280Z,24.53
2018-12-02T08:59:33.223Z,27.27
2018-12-02T09:02:02.701Z,25.03
2018-12-02T09:04:32.129Z,21.10
2018-12-02T09:07:01.513Z,25.27
2018-12-02T09:09:30.960Z,20.17
2018-12-02T09:12:00.508Z,22.83
2018-12-02T09:14:30.787Z,20.17
2018-12-02T09:17:00.831Z,18.67
2018-12-02T09:19:30.406Z,19.30
2018-12-02T09:21:59.883Z,18.77
2018-12-02T09:24:29.218Z,20.13
2018-12-02T09:26:58.568Z,19.43
2018-12-02T09:29:29.658Z,20.53
2018-12-02T09:31:59.015Z,17.87
2018-12-02T09:34:28.365Z,19.43
2018-12-02T09:36:58.097Z,20.00
2018-12-02T09:39:27.087Z,20.27
2018-12-02T09:41:56.422Z,17.97
2018-12-02T09:44:25.967Z,17.97
2018-12-02T09:46:55.264Z,17.40
2018-12-02T09:49:24.635Z,19.80
2018-12-02T09:51:54.075Z,19.33
2018-12-02T09:54:24.896Z,17.30
2018-12-02T09:56:54.352Z,19.53
2018-12-02T09:59:24.049Z,16.33
2018-12-02T10:01:56.954Z,18.30
2018-12-02T10:04:26.383Z,16.33
2018-12-02T10:06:55.972Z,19.90
2018-12-02T10:09:25.334Z,16.07
2018-12-02T10:11:54.669Z,18.60
2018-12-02T10:14:23.993Z,18.50
2018-12-02T10:16:53.487Z,15.73
2018-12-02T10:19:22.856Z,15.57
2018-12-02T10:21:52.299Z,18.40
2018-12-02T10:24:23.518Z,13.80
2018-12-02T10:26:52.844Z,17.90
2018-12-02T10:29:22.314Z,16.07
2018-12-02T10:31:52.019Z,15.53
2018-12-02T10:34:22.039Z,18.87
2018-12-02T10:36:51.834Z,16.80
2018-12-02T10:39:21.427Z,16.23
2018-12-02T10:41:50.943Z,12.47
2018-12-02T10:44:20.609Z,13.73
2018-12-02T10:46:56.809Z,12.73
2018-12-02T10:49:26.502Z,11.20
2018-12-02T10:51:56.180Z,13.10
2018-12-02T10:54:25.827Z,12.57
2018-12-02T10:56:55.884Z,15.33
2018-12-02T10:59:25.645Z,15.03
2018-12-02T11:02:00.305Z,13.50
2018-12-02T11:04:29.974Z,12.47
2018-12-02T11:06:59.611Z,16.93
2018-12-02T11:09:29.277Z,13.33
2018-12-02T11:12:08.715Z,12.47
2018-12-02T11:14:38.429Z,13.80
2018-12-02T11:17:08.009Z,10.43
2018-12-02T11:19:37.598Z,12.10
2018-12-02T11:22:07.110Z,11.50
2018-12-02T11:24:36.763Z,9.70
2018-12-02T11:27:06.993Z,9.80
2018-12-02T11:29:36.654Z,11.43
2018-12-02T11:32:06.931Z,12.10
2018-12-02T11:34:36.571Z,11.47
2018-12-02T11:37:06.976Z,10.27
2018-12-02T11:39:38.038Z,10.77
2018-12-02T11:42:07.670Z,10.33
2018-12-02T11:44:37.066Z,11.63
2018-12-02T11:47:06.444Z,8.27
2018-12-02T11:49:35.997Z,9.87
2018-12-02T11:52:05.541Z,9.87
2018-12-02T11:54:34.985Z,9.13
2018-12-02T11:57:04.723Z,10.53
2018-12-02T11:59:36.267Z,8.20
2018-12-02T12:02:07.762Z,11.87
2018-12-02T12:04:44.262Z,10.17
2018-12-02T12:07:15.082Z,11.03
2018-12-02T12:09:44.706Z,9.40
2018-12-02T12:12:14.861Z,8.93
2018-12-02T12:14:44.332Z,10.57
2018-12-02T12:17:13.722Z,8.47
2018-12-02T12:19:43.236Z,9.00
2018-12-02T12:22:12.649Z,8.47
2018-12-02T12:24:42.565Z,9.83
2018-12-02T12:27:12.112Z,10.20
2018-12-02T12:29:41.591Z,9.13
2018-12-02T12:32:11.302Z,10.20
2018-12-02T12:34:40.817Z,6.47
2018-12-02T12:37:10.299Z,9.83
2018-12-02T12:39:40.814Z,8.90
2018-12-02T12:42:10.330Z,7.60
2018-12-02T12:44:39.837Z,8.33
2018-12-02T12:47:09.328Z,8.70
2018-12-02T12:49:38.848Z,7.87
2018-12-02T12:52:08.405Z,8.03
2018-12-02T12:54:38.600Z,9.90
2018-12-02T12:57:08.181Z,9.63
2018-12-02T12:59:37.661Z,9.40
2018-12-02T13:02:07.128Z,10.40
2018-12-02T13:04:36.582Z,9.87
2018-12-02T13:07:06.218Z,9.97
2018-12-02T13:09:35.939Z,10.63
2018-12-02T13:12:05.722Z,15.93
2018-12-02T13:14:37.144Z,10.40
2018-12-02T13:17:07.273Z,10.03
2018-12-02T13:19:36.797Z,10.67
2018-12-02T13:22:06.222Z,10.00
2018-12-02T13:24:35.769Z,10.50
2018-12-02T13:27:06.178Z,11.13
2018-12-02T13:29:36.564Z,11.97
2018-12-02T13:32:06.888Z,9.53
2018-12-02T13:34:39.992Z,10.83
2018-12-02T13:40:12.990Z,11.93
2018-12-02T13:42:43.339Z,12.47
2018-12-02T13:45:14.948Z,12.27
2018-12-02T13:47:44.383Z,13.23
2018-12-02T13:50:14.840Z,12.70
2018-12-02T13:52:44.494Z,13.93
2018-12-02T13:55:17.918Z,14.40
2018-12-02T13:57:47.869Z,14.87
2018-12-02T14:00:22.446Z,15.03
2018-12-02T14:03:02.247Z,18.17
2018-12-02T14:05:32.739Z,16.07
2018-12-02T14:08:02.290Z,17.20
2018-12-02T14:10:31.709Z,18.57
2018-12-02T14:13:05.866Z,18.97
2018-12-02T14:15:42.726Z,19.23
2018-12-02T14:18:15.841Z,20.47
2018-12-02T14:20:45.312Z,18.37
2018-12-02T14:23:14.901Z,19.70
2018-12-02T14:25:44.326Z,22.27
2018-12-02T14:28:15.558Z,21.73
2018-12-02T14:30:45.802Z,23.30
2018-12-02T14:33:15.252Z,24.73
2018-12-02T14:35:44.716Z,19.20
2018-12-02T14:38:14.111Z,24.77
2018-12-02T14:40:43.511Z,25.07
2018-12-02T14:43:12.947Z,25.37
2018-12-02T14:45:43.405Z,22.00
2018-12-02T14:48:12.747Z,22.57
2018-12-02T14:50:43.564Z,23.53
2018-12-02T14:53:13.385Z,24.03
2018-12-02T14:55:42.995Z,23.07
2018-12-02T14:58:12.877Z,24.70
2018-12-02T15:00:42.900Z,26.43
2018-12-02T15:03:12.249Z,26.70
2018-12-02T15:05:41.617Z,25.77
2018-12-02T15:08:11.414Z,22.30
2018-12-02T15:10:40.808Z,25.73
2018-12-02T15:13:10.172Z,23.97
2018-12-02T15:15:41.522Z,24.77
2018-12-02T15:18:10.989Z,25.70
2018-12-02T15:20:40.490Z,25.03
2018-12-02T15:23:09.848Z,24.83
2018-12-02T15:25:39.298Z,28.40
2018-12-02T15:28:08.703Z,26.30
2018-12-02T15:30:38.765Z,32.27
2018-12-02T15:33:08.277Z,26.33
2018-12-02T15:35:38.523Z,26.07
2018-12-02T15:38:07.909Z,27.43
2018-12-02T15:40:37.347Z,30.27
2018-12-02T15:43:06.945Z,30.87
2018-12-02T15:45:36.533Z,30.30
2018-12-02T15:48:06.255Z,32.47
2018-12-02T15:50:36.371Z,30.03
2018-12-02T15:53:05.933Z,29.07
2018-12-02T15:55:36.050Z,32.40
2018-12-02T15:58:08.287Z,28.63
2018-12-02T16:00:40.668Z,32.47
2018-12-02T16:03:10.087Z,28.70
2018-12-02T16:05:39.566Z,29.00
2018-12-02T16:08:09.342Z,27.63
2018-12-02T16:10:38.712Z,33.53
2018-12-02T16:13:09.712Z,31.30
2018-12-02T16:15:40.812Z,32.07
2018-12-02T16:18:11.637Z,30.67
2018-12-02T16:20:49.391Z,29.40
2018-12-02T16:23:22.761Z,31.33
2018-12-02T16:25:52.246Z,29.93
2018-12-02T16:28:22.351Z,26.30
2018-12-02T16:30:53.203Z,30.63
2018-12-02T16:33:22.593Z,57.77
2018-12-02T16:35:52.004Z,73.73
2018-12-02T16:38:21.354Z,117.33
2018-12-02T16:40:50.768Z,300.23
2018-12-02T16:43:20.202Z,114.17
2018-12-02T16:45:49.598Z,115.13
2018-12-02T16:48:18.962Z,106.70
2018-12-02T16:50:49.681Z,137.20
2018-12-02T16:53:22.576Z,81.97
2018-12-02T16:55:57.537Z,77.37
2018-12-02T16:58:54.593Z,46.77
2018-12-02T17:01:25.768Z,58.77
2018-12-02T17:03:58.721Z,69.33
2018-12-02T17:06:28.223Z,88.57
2018-12-02T17:08:58.542Z,121.47
2018-12-02T17:11:28.970Z,132.10
2018-12-02T17:13:58.397Z,143.67
2018-12-02T17:16:27.769Z,338.30
2018-12-02T17:18:57.170Z,133.17
2018-12-02T17:21:26.660Z,110.50
2018-12-02T17:23:56.052Z,94.73
2018-12-02T17:26:25.396Z,96.23
2018-12-02T17:28:55.567Z,80.47
2018-12-02T17:31:27.838Z,70.23
2018-12-02T17:33:57.244Z,118.07
2018-12-02T17:36:26.649Z,90.63
2018-12-02T17:38:59.527Z,77.67
2018-12-02T17:41:31.733Z,60.80
2018-12-02T17:44:01.129Z,60.00
2018-12-02T17:46:30.752Z,99.77
2018-12-02T17:49:00.128Z,43.27
2018-12-02T17:51:29.517Z,78.83
2018-12-02T17:53:58.968Z,46.83
2018-12-02T17:56:28.464Z,59.90
2018-12-02T17:58:57.847Z,62.33
2018-12-02T18:01:27.289Z,52.53
2018-12-02T18:03:56.759Z,55.73
2018-12-02T18:06:26.110Z,33.17
2018-12-02T18:08:55.590Z,33.00
2018-12-02T18:11:25.309Z,47.03
2018-12-02T18:13:54.650Z,62.17
2018-12-02T18:16:24.053Z,36.20
2018-12-02T18:18:53.641Z,30.10
2018-12-02T18:21:23.016Z,31.03
2018-12-02T18:23:52.342Z,34.93
2018-12-02T18:26:21.679Z,31.17
2018-12-02T18:28:51.081Z,48.27
2018-12-02T18:31:20.519Z,50.93
2018-12-02T18:33:49.935Z,40.90
2018-12-02T18:36:22.107Z,37.53
2018-12-02T18:38:51.615Z,29.67
2018-12-02T18:41:26.759Z,32.13
2018-12-02T18:43:56.891Z,29.43
2018-12-02T18:46:26.365Z,28.13
2018-12-02T18:48:55.760Z,25.67
2018-12-02T18:51:25.094Z,31.33
2018-12-02T18:53:54.446Z,29.10
2018-12-02T18:56:23.933Z,25.53
2018-12-02T18:58:53.545Z,30.00
2018-12-02T19:01:23.317Z,28.60
2018-12-02T19:03:52.907Z,31.80
2018-12-02T19:06:22.276Z,27.50
2018-12-02T19:08:51.681Z,28.37
2018-12-02T19:11:21.708Z,26.40
2018-12-02T19:13:52.353Z,23.93
2018-12-02T19:16:20.711Z,23.53
2018-12-02T19:18:50.533Z,21.63
2018-12-02T19:21:27.365Z,22.63
2018-12-02T19:23:57.993Z,26.60
2018-12-02T19:26:28.366Z,24.43
2018-12-02T19:28:57.827Z,21.03
2018-12-02T19:31:27.243Z,18.03
2018-12-02T19:33:57.556Z,20.37
2018-12-02T19:36:33.558Z,23.93
2018-12-02T19:39:03.031Z,21.10
2018-12-02T19:41:32.927Z,26.67
2018-12-02T19:44:02.367Z,21.30
2018-12-02T19:46:31.740Z,19.20
2018-12-02T19:49:01.194Z,21.67
2018-12-02T19:51:30.588Z,21.97
2018-12-02T19:54:00.023Z,22.40
2018-12-02T19:56:29.404Z,25.37
2018-12-02T19:58:58.725Z,21.20
2018-12-02T20:01:28.045Z,17.27
2018-12-02T20:03:57.375Z,17.83
2018-12-02T20:06:26.759Z,22.27
2018-12-02T20:08:56.089Z,17.90
2018-12-02T20:11:25.773Z,69.37
2018-12-02T20:13:55.169Z,172.23
2018-12-02T20:16:24.541Z,231.87
2018-12-02T20:18:53.953Z,220.77
2018-12-02T20:21:25.104Z,301.10
2018-12-02T20:23:59.500Z,409.57
2018-12-02T20:26:28.924Z,187.13
2018-12-02T20:28:58.735Z,130.33
2018-12-02T20:31:29.243Z,181.63
2018-12-02T20:33:58.665Z,134.97
2018-12-02T20:36:27.978Z,48.83
2018-12-02T20:38:57.344Z,92.73
2018-12-02T20:41:26.729Z,105.27
2018-12-02T20:43:56.285Z,117.73
2018-12-02T20:46:25.643Z,77.93
2018-12-02T20:48:56.196Z,85.10
2018-12-02T20:51:25.546Z,79.20
2018-12-02T20:53:55.186Z,60.60
2018-12-02T20:56:24.565Z,84.77
2018-12-02T20:58:54.120Z,68.17
2018-12-02T21:01:23.590Z,38.43
2018-12-02T21:03:53.064Z,55.20
2018-12-02T21:06:22.844Z,71.50
2018-12-02T21:08:52.293Z,65.83
2018-12-02T21:11:22.230Z,44.23
2018-12-02T21:13:51.573Z,43.97
2018-12-02T21:16:21.696Z,31.63
2018-12-02T21:18:51.384Z,34.83
2018-12-02T21:21:21.936Z,37.13
2018-12-02T21:23:51.717Z,33.07
2018-12-02T21:26:22.159Z,49.57
2018-12-02T21:28:51.950Z,31.67
2018-12-02T21:31:22.319Z,30.10
2018-12-02T21:33:51.987Z,25.90
2018-12-02T21:36:22.592Z,22.07
2018-12-02T21:38:52.360Z,32.43
2018-12-02T21:41:22.849Z,40.10
2018-12-02T21:43:53.411Z,31.47
2018-12-02T21:46:29.713Z,23.27
2018-12-02T21:48:59.786Z,26.17
2018-12-02T21:51:30.462Z,27.37
2018-12-02T21:54:01.924Z,24.23
2018-12-02T21:56:32.370Z,24.93
2018-12-02T21:59:02.188Z,22.50
2018-12-02T22:01:33.102Z,24.70
2018-12-02T22:04:04.014Z,23.00
2018-12-02T22:06:34.247Z,19.27
2018-12-02T22:09:04.375Z,22.83
2018-12-02T22:11:35.982Z,21.57
2018-12-02T22:14:06.230Z,20.13
2018-12-02T22:16:36.346Z,26.53
2018-12-02T22:19:06.797Z,24.43
2018-12-02T22:21:36.863Z,23.60
2018-12-02T22:24:07.359Z,25.57
2018-12-02T22:26:38.718Z,23.63
2018-12-02T22:29:16.085Z,26.83
2018-12-02T22:31:58.395Z,21.90
2018-12-02T22:34:28.938Z,18.33
2018-12-02T22:36:58.612Z,20.33
2018-12-02T22:39:28.284Z,21.60
2018-12-02T22:41:58.063Z,21.53
2018-12-02T22:44:31.460Z,19.40
2018-12-02T22:46:57.850Z,22.47
2018-12-02T22:49:27.746Z,31.27
2018-12-02T22:51:57.501Z,18.70
2018-12-02T22:54:27.316Z,18.37
2018-12-02T22:56:56.971Z,19.03
2018-12-02T22:59:27.196Z,18.73
2018-12-02T23:02:36.064Z,17.53
2018-12-02T23:05:06.550Z,20.67
2018-12-02T23:07:36.351Z,20.30
2018-12-02T23:10:06.363Z,19.87
2018-12-02T23:12:36.142Z,20.00
2018-12-02T23:15:06.838Z,18.47
2018-12-02T23:17:37.143Z,17.47
2018-12-02T23:20:10.752Z,19.77
2018-12-02T23:22:40.589Z,17.23
2018-12-02T23:25:14.124Z,14.27
2018-12-02T23:27:44.565Z,25.10
2018-12-02T23:30:22.251Z,15.53
2018-12-02T23:32:52.298Z,15.53
2018-12-02T23:35:22.049Z,15.53
2018-12-02T23:37:51.853Z,19.13
2018-12-02T23:40:24.086Z,16.53
2018-12-02T23:42:53.930Z,17.90
2018-12-02T23:45:23.678Z,15.77
2018-12-02T23:47:53.537Z,16.87
2018-12-02T23:50:24.803Z,14.63
2018-12-02T23:52:54.545Z,15.50
2018-12-02T23:55:24.283Z,16.50
2018-12-02T23:57:54.601Z,13.47
